KHSV/HSV METAR and TAF weather

Enter ICAO airport designator
Station Type Date Time Source
KHSV METAR 2019/04/24 15:53 UTC NOAA

KHSV 241553Z 27003KT 10SM FEW040 FEW180 FEW250 24/14 A3003 RMK AO2 SLP162 T02390144


Station Type Date Time Source
KHSV Decoded METAR 2019/04/24 15:53 UTC NOAA

HUNTSVILLE INTERNATIONAL JONES FIELD, AL, United States (KHSV) 34-39N 086-47W 191M
Apr 24, 2019 - 11:53 AM EDT / 2019.04.24 1553 UTC
Wind: from the W (270 degrees) at 3 MPH (3 KT):0
Visibility: 10 mile(s):0
Sky conditions: mostly clear
Temperature: 75.0 F (23.9 C)
Dew Point: 57.9 F (14.4 C)
Relative Humidity: 55%
Pressure (altimeter): 30.03 in. Hg (1016 hPa)
ob: KHSV 241553Z 27003KT 10SM FEW040 FEW180 FEW250 24/14 A3003 RMK AO2 SLP162 T02390144
cycle: 16

Station Type Date Time Source
KHSV TAF 2019/04/24 12:36 UTC NOAA

TAF KHSV 241135Z 2412/2512 12003KT P6SM SCT200
FM241600 22009KT P6SM SCT250
FM250400 18004KT P6SM BKN050 OVC150

Example: see airport list